Congress, Arizona
Current Conditions -  °F | °C
As of 10:53 PM on Saturday 25 Oct 2014 (Local Time) from KPRC Reporting Station
Clear Clear  
Wind Chill: 55°   Ceiling: Unl
Heat Index: 55°   Visibility: 10mi
Dew Point: 42°   Wind: 9mph
Humidity: 62%   Direction: 200°SSW
Pressure: 30.16"   Gusts: NA
Location:  34.16°N, 112.85°W
Report Text: KPRC 260553Z 20008KT 10SM CLR 13/06 A3016 RMK AO2 SLP146 T01280056 10228 20122 58001
Loading
Personal Weather Stations






























Interactive Weather Map
Tropical Storm Tracking
New forecast layout! Learn more

10-Day Weather Forecast

Advertisements
Track Severe Weather on mobile